createdAt,value
2023-03-03T00:01:12.197Z,57.25
2023-03-03T00:03:38.932Z,57.69
2023-03-03T00:06:10.458Z,57.61
2023-03-03T00:08:37.923Z,57.63
2023-03-03T00:11:04.929Z,57.99
2023-03-03T00:13:32.461Z,57.81
2023-03-03T00:16:13.444Z,57.96
2023-03-03T00:18:43.352Z,57.80
2023-03-03T00:21:25.522Z,58.20
2023-03-03T00:23:52.677Z,58.09
2023-03-03T00:26:23.361Z,58.17
2023-03-03T00:28:51.974Z,57.81
2023-03-03T00:31:21.112Z,57.36
2023-03-03T00:33:50.208Z,57.58
2023-03-03T00:36:31.800Z,57.36
2023-03-03T00:39:17.981Z,57.43
2023-03-03T00:41:45.759Z,57.83
2023-03-03T00:44:41.095Z,57.86
2023-03-03T00:47:31.826Z,58.71
2023-03-03T00:50:26.778Z,58.58
2023-03-03T00:53:07.127Z,58.86
2023-03-03T00:55:35.355Z,58.65
2023-03-03T00:58:03.355Z,58.77
2023-03-03T01:00:33.955Z,58.65
2023-03-03T01:03:05.507Z,58.69
2023-03-03T01:05:33.117Z,58.45
2023-03-03T01:08:02.632Z,58.19
2023-03-03T01:10:32.703Z,58.00
2023-03-03T01:13:00.648Z,57.95
2023-03-03T01:15:28.220Z,57.41
2023-03-03T01:17:56.285Z,57.12
2023-03-03T01:20:23.199Z,57.51
2023-03-03T01:22:50.729Z,57.50
2023-03-03T01:25:20.033Z,57.56
2023-03-03T01:27:46.882Z,57.54
2023-03-03T01:30:14.808Z,57.24
2023-03-03T01:32:42.318Z,56.68
2023-03-03T01:35:10.458Z,56.73
2023-03-03T01:37:37.892Z,56.94
2023-03-03T01:40:06.679Z,57.03
2023-03-03T01:42:36.289Z,56.93
2023-03-03T01:45:21.134Z,56.69
2023-03-03T01:47:54.676Z,56.52
2023-03-03T01:50:32.387Z,56.92
2023-03-03T01:53:03.286Z,57.25
2023-03-03T01:55:34.782Z,57.60
2023-03-03T01:58:08.632Z,57.60
2023-03-03T02:00:39.028Z,57.99
2023-03-03T02:03:06.809Z,58.40
2023-03-03T02:05:36.268Z,58.51
2023-03-03T02:08:05.056Z,58.70
2023-03-03T02:10:32.348Z,58.79
2023-03-03T02:13:00.042Z,58.99
2023-03-03T02:15:30.832Z,59.18
2023-03-03T02:18:01.446Z,59.44
2023-03-03T02:20:50.887Z,59.24
2023-03-03T02:23:24.740Z,59.23
2023-03-03T02:26:05.918Z,58.57
2023-03-03T02:28:36.049Z,57.66
2023-03-03T02:31:06.280Z,57.22
2023-03-03T02:33:33.862Z,56.95
2023-03-03T02:36:01.678Z,56.45
2023-03-03T02:38:36.309Z,56.82
2023-03-03T02:41:12.718Z,56.80
2023-03-03T02:43:46.997Z,56.73
2023-03-03T02:46:14.496Z,57.15
2023-03-03T02:48:41.653Z,57.70
2023-03-03T02:51:09.119Z,57.74
2023-03-03T02:53:37.163Z,57.61
2023-03-03T02:56:07.329Z,57.67
2023-03-03T02:58:34.663Z,57.43
2023-03-03T03:01:02.457Z,58.21
2023-03-03T03:03:30.034Z,58.63
2023-03-03T03:05:57.592Z,58.21
2023-03-03T03:08:25.350Z,57.90
2023-03-03T03:10:53.840Z,57.81
2023-03-03T03:13:24.170Z,57.44
2023-03-03T03:15:51.883Z,57.71
2023-03-03T03:18:19.379Z,57.80
2023-03-03T03:20:48.463Z,57.74
2023-03-03T03:23:16.677Z,57.73
2023-03-03T03:25:44.582Z,57.33
2023-03-03T03:28:12.384Z,57.28
2023-03-03T03:30:42.224Z,57.41
2023-03-03T03:33:09.633Z,57.27
2023-03-03T03:35:37.819Z,57.69
2023-03-03T03:38:05.469Z,57.38
2023-03-03T03:40:33.390Z,57.46
2023-03-03T03:43:00.663Z,57.47
2023-03-03T03:45:28.228Z,57.79
2023-03-03T03:47:56.452Z,57.81
2023-03-03T03:50:23.869Z,57.54
2023-03-03T03:52:51.725Z,57.53
2023-03-03T03:55:19.842Z,57.58
2023-03-03T03:57:47.376Z,57.63
2023-03-03T04:00:14.813Z,57.78
2023-03-03T04:02:42.352Z,58.02
2023-03-03T04:05:10.741Z,58.52
2023-03-03T04:07:38.321Z,58.55
2023-03-03T04:10:06.640Z,58.70
2023-03-03T04:12:34.385Z,58.53
2023-03-03T04:15:02.019Z,58.12
2023-03-03T04:17:29.885Z,57.53
2023-03-03T04:19:57.562Z,57.99
2023-03-03T04:22:27.198Z,57.63
2023-03-03T04:24:55.135Z,57.86
2023-03-03T04:27:22.574Z,57.84
2023-03-03T04:29:50.609Z,57.82
2023-03-03T04:32:17.927Z,57.06
2023-03-03T04:34:47.348Z,56.70
2023-03-03T04:37:16.681Z,56.14
2023-03-03T04:39:45.578Z,55.75
2023-03-03T04:42:13.080Z,55.85
2023-03-03T04:44:40.675Z,55.66
2023-03-03T04:47:07.996Z,55.53
2023-03-03T04:49:35.394Z,55.57
2023-03-03T04:52:03.037Z,55.56
2023-03-03T04:54:31.356Z,55.38
2023-03-03T04:57:00.345Z,55.48
2023-03-03T04:59:27.829Z,55.69
2023-03-03T05:01:55.698Z,55.71
2023-03-03T05:04:23.023Z,56.25
2023-03-03T05:06:50.514Z,56.08
2023-03-03T05:09:17.861Z,55.99
2023-03-03T05:11:45.868Z,56.21
2023-03-03T05:14:15.087Z,56.32
2023-03-03T05:16:42.900Z,56.11
2023-03-03T05:19:10.136Z,55.97
2023-03-03T05:21:38.306Z,55.99
2023-03-03T05:24:05.915Z,56.33
2023-03-03T05:26:32.755Z,56.95
2023-03-03T05:29:00.196Z,57.29
2023-03-03T05:31:30.139Z,57.70
2023-03-03T05:33:57.723Z,57.73
2023-03-03T05:36:25.761Z,57.47
2023-03-03T05:38:53.030Z,56.91
2023-03-03T05:41:20.548Z,56.84
2023-03-03T05:43:48.486Z,56.42
2023-03-03T05:46:15.919Z,56.24
2023-03-03T05:48:46.549Z,55.95
2023-03-03T05:51:14.394Z,55.37
2023-03-03T05:53:41.995Z,55.22
2023-03-03T05:56:09.442Z,55.67
2023-03-03T05:58:37.153Z,55.38
2023-03-03T06:01:04.581Z,55.18
2023-03-03T06:03:32.103Z,55.52
2023-03-03T06:06:01.248Z,55.50
2023-03-03T06:08:28.502Z,55.54
2023-03-03T06:10:56.175Z,55.96
2023-03-03T06:13:23.840Z,55.88
2023-03-03T06:15:50.628Z,55.65
2023-03-03T06:18:18.285Z,55.79
2023-03-03T06:20:45.936Z,56.29
2023-03-03T06:23:18.103Z,56.40
2023-03-03T06:25:45.896Z,56.25
2023-03-03T06:28:13.539Z,56.48
2023-03-03T06:30:40.827Z,56.32
2023-03-03T06:33:08.493Z,56.81
2023-03-03T06:35:35.737Z,56.63
2023-03-03T06:38:04.379Z,56.75
2023-03-03T06:40:33.337Z,56.52
2023-03-03T06:43:00.658Z,56.46
2023-03-03T06:45:28.126Z,56.65
2023-03-03T06:47:55.812Z,56.81
2023-03-03T06:50:22.718Z,56.99
2023-03-03T06:52:52.448Z,57.25
2023-03-03T06:55:24.156Z,57.86
2023-03-03T06:57:53.260Z,57.93
2023-03-03T07:00:25.036Z,57.76
2023-03-03T07:02:58.375Z,58.29
2023-03-03T07:05:27.659Z,57.63
2023-03-03T07:07:54.774Z,57.73
2023-03-03T07:10:25.735Z,57.82
2023-03-03T07:12:57.198Z,57.97
2023-03-03T07:15:30.390Z,57.72
2023-03-03T07:17:57.998Z,58.05
2023-03-03T07:20:30.304Z,57.63
2023-03-03T07:22:58.458Z,57.34
2023-03-03T07:25:31.659Z,57.05
2023-03-03T07:28:12.086Z,56.81
2023-03-03T07:30:39.709Z,57.15
2023-03-03T07:33:24.090Z,56.59
2023-03-03T07:35:52.308Z,57.09
2023-03-03T07:38:32.132Z,57.12
2023-03-03T07:41:01.694Z,56.85
2023-03-03T07:43:36.567Z,56.76
2023-03-03T07:46:23.063Z,56.78
2023-03-03T07:48:51.262Z,56.31
2023-03-03T07:51:22.384Z,56.26
2023-03-03T07:53:49.936Z,56.13
2023-03-03T07:56:27.368Z,56.14
2023-03-03T07:58:57.792Z,56.34
2023-03-03T08:01:42.197Z,55.86
2023-03-03T08:04:17.058Z,55.83
2023-03-03T08:06:49.920Z,56.11
2023-03-03T08:09:45.483Z,55.89
2023-03-03T08:12:36.801Z,55.77
2023-03-03T08:15:32.150Z,55.74
2023-03-03T08:18:02.080Z,55.38
2023-03-03T08:20:47.205Z,55.56
2023-03-03T08:23:16.980Z,55.62
2023-03-03T08:25:44.531Z,55.71
2023-03-03T08:28:12.360Z,56.15
2023-03-03T08:30:41.971Z,56.05
2023-03-03T08:33:09.793Z,55.72
2023-03-03T08:35:37.531Z,55.27
2023-03-03T08:38:05.346Z,56.34
2023-03-03T08:40:33.624Z,56.67
2023-03-03T08:43:02.186Z,56.27
2023-03-03T08:45:29.960Z,56.28
2023-03-03T08:47:59.184Z,55.83
2023-03-03T08:50:26.123Z,55.90
2023-03-03T08:52:54.110Z,55.92
2023-03-03T08:55:21.656Z,56.24
2023-03-03T08:57:49.606Z,56.67
2023-03-03T09:00:18.526Z,56.77
2023-03-03T09:02:45.540Z,57.10
2023-03-03T09:05:14.438Z,56.77
2023-03-03T09:07:42.460Z,56.83
2023-03-03T09:10:12.014Z,57.47
2023-03-03T09:12:41.681Z,57.41
2023-03-03T09:15:17.059Z,58.04
2023-03-03T09:17:44.577Z,57.28
2023-03-03T09:20:38.220Z,57.03
2023-03-03T09:23:36.806Z,57.37
2023-03-03T09:26:32.318Z,57.14
2023-03-03T09:29:16.916Z,56.51
2023-03-03T09:31:46.846Z,56.20
2023-03-03T09:34:20.192Z,56.12
2023-03-03T09:36:49.530Z,55.63
2023-03-03T09:39:19.689Z,56.52
2023-03-03T09:42:13.640Z,57.84
2023-03-03T09:45:04.476Z,57.37
2023-03-03T09:48:22.472Z,56.57
2023-03-03T09:50:59.122Z,56.42
2023-03-03T09:53:46.573Z,56.70
2023-03-03T09:56:23.090Z,57.65
2023-03-03T09:59:09.228Z,57.71
2023-03-03T10:01:50.705Z,58.29
2023-03-03T10:04:55.720Z,58.52
2023-03-03T10:07:33.862Z,59.59
2023-03-03T10:10:19.388Z,59.88
2023-03-03T10:12:58.023Z,58.46
2023-03-03T10:15:40.677Z,57.63
2023-03-03T10:18:19.850Z,57.09
2023-03-03T10:21:01.414Z,57.09
2023-03-03T10:23:45.451Z,56.69
2023-03-03T10:26:25.098Z,57.01
2023-03-03T10:29:11.554Z,57.37
2023-03-03T10:31:52.002Z,57.84
2023-03-03T10:34:38.075Z,57.07
2023-03-03T10:37:13.403Z,56.48
2023-03-03T10:39:56.415Z,56.84
2023-03-03T10:43:00.366Z,56.69
2023-03-03T10:45:59.073Z,57.32
2023-03-03T10:48:53.040Z,56.24
2023-03-03T10:51:28.653Z,55.70
2023-03-03T10:54:15.406Z,56.71
2023-03-03T10:56:53.674Z,57.58
2023-03-03T10:59:41.984Z,56.22
2023-03-03T11:02:17.860Z,55.78
2023-03-03T11:05:17.824Z,55.94
2023-03-03T11:07:49.184Z,56.13
2023-03-03T11:10:28.500Z,55.63
2023-03-03T11:13:06.526Z,54.93
2023-03-03T11:15:48.986Z,53.89
2023-03-03T11:18:25.967Z,54.22
2023-03-03T11:21:03.394Z,54.45
2023-03-03T11:23:58.581Z,54.21
2023-03-03T11:26:46.405Z,52.74
2023-03-03T11:29:30.436Z,51.90
2023-03-03T11:32:10.969Z,50.85
2023-03-03T11:34:52.988Z,49.75
2023-03-03T11:37:24.838Z,51.10
2023-03-03T11:39:55.809Z,51.65
2023-03-03T11:42:30.501Z,51.51
2023-03-03T11:45:03.340Z,51.13
2023-03-03T11:47:39.843Z,50.64
2023-03-03T11:50:16.320Z,50.58
2023-03-03T11:52:51.557Z,50.57
2023-03-03T11:55:25.882Z,51.29
2023-03-03T11:57:59.284Z,52.01
2023-03-03T12:00:31.295Z,52.15
2023-03-03T12:03:16.775Z,53.47
2023-03-03T12:05:55.275Z,54.38
2023-03-03T12:08:36.812Z,54.43
2023-03-03T12:11:10.508Z,53.68
2023-03-03T12:13:50.833Z,53.09
2023-03-03T12:16:29.505Z,53.44
2023-03-03T12:19:14.709Z,52.78
2023-03-03T12:22:08.256Z,51.70
2023-03-03T12:24:59.807Z,51.36
2023-03-03T12:27:35.065Z,50.63
2023-03-03T12:30:13.584Z,50.51
2023-03-03T12:33:00.645Z,50.28
2023-03-03T12:35:37.438Z,49.50
2023-03-03T12:38:16.500Z,49.64
2023-03-03T12:40:49.461Z,49.13
2023-03-03T12:43:30.685Z,48.85
2023-03-03T12:46:07.087Z,49.49
2023-03-03T12:48:41.456Z,48.44
2023-03-03T12:51:22.112Z,48.94
2023-03-03T12:54:14.687Z,49.21
2023-03-03T12:56:47.094Z,48.93
2023-03-03T12:59:21.436Z,48.92
2023-03-03T13:02:01.791Z,49.09
2023-03-03T13:04:36.265Z,49.40
2023-03-03T13:07:16.467Z,49.87
2023-03-03T13:10:02.104Z,50.05
2023-03-03T13:12:37.161Z,48.98
2023-03-03T13:15:15.974Z,48.69
2023-03-03T13:17:56.234Z,49.85
2023-03-03T13:20:32.214Z,49.25
2023-03-03T13:23:08.318Z,49.40
2023-03-03T13:25:44.438Z,49.32
2023-03-03T13:28:29.056Z,49.24
2023-03-03T13:31:01.502Z,48.77
2023-03-03T13:33:32.940Z,48.67
2023-03-03T13:36:03.430Z,48.42
2023-03-03T13:38:37.138Z,48.60
2023-03-03T13:41:16.456Z,48.67
2023-03-03T13:43:49.247Z,49.48
2023-03-03T13:46:28.426Z,49.21
2023-03-03T13:49:30.692Z,49.73
2023-03-03T13:52:03.467Z,50.24
2023-03-03T13:54:53.781Z,50.30
2023-03-03T13:57:35.632Z,50.10
2023-03-03T14:00:13.716Z,49.79
2023-03-03T14:03:00.268Z,49.96
2023-03-03T14:05:36.181Z,49.98
2023-03-03T14:08:13.431Z,49.27
2023-03-03T14:10:48.273Z,49.06
2023-03-03T14:13:25.489Z,48.61
2023-03-03T14:15:58.326Z,49.03
2023-03-03T14:18:29.852Z,49.76
2023-03-03T14:21:00.745Z,50.46
2023-03-03T14:23:38.458Z,50.80
2023-03-03T14:26:11.287Z,51.80
2023-03-03T14:28:40.633Z,51.42
2023-03-03T14:31:18.522Z,52.18
2023-03-03T14:33:58.540Z,52.06
2023-03-03T14:36:31.610Z,51.08
2023-03-03T14:38:58.542Z,51.42
2023-03-03T14:41:41.942Z,50.80
2023-03-03T14:44:29.694Z,50.36
2023-03-03T14:47:23.545Z,49.72
2023-03-03T14:49:51.866Z,49.27
2023-03-03T14:52:24.741Z,48.72
2023-03-03T14:54:53.776Z,47.29
2023-03-03T14:57:38.980Z,46.52
2023-03-03T15:00:33.029Z,46.43
2023-03-03T15:03:18.848Z,46.52
2023-03-03T15:05:50.658Z,45.22
2023-03-03T15:08:31.263Z,45.60
2023-03-03T15:11:13.550Z,45.39
2023-03-03T15:13:42.698Z,44.54
2023-03-03T15:16:16.985Z,44.95
2023-03-03T15:19:17.347Z,44.46
2023-03-03T15:21:55.768Z,44.23
2023-03-03T15:24:30.789Z,44.87
2023-03-03T15:27:02.418Z,44.56
2023-03-03T15:29:37.148Z,44.54
2023-03-03T15:32:15.177Z,44.99
2023-03-03T15:34:47.421Z,44.56
2023-03-03T15:37:29.524Z,44.32
2023-03-03T15:40:09.070Z,45.05
2023-03-03T15:42:42.763Z,44.97
2023-03-03T15:45:21.901Z,45.05
2023-03-03T15:48:05.391Z,44.84
2023-03-03T15:50:43.744Z,45.03
2023-03-03T15:53:42.689Z,45.00
2023-03-03T15:56:27.756Z,45.14
2023-03-03T15:59:12.163Z,45.24
2023-03-03T16:01:48.004Z,46.40
2023-03-03T16:04:17.932Z,46.60
2023-03-03T16:06:53.163Z,46.76
2023-03-03T16:09:32.063Z,46.16
2023-03-03T16:12:09.649Z,45.76
2023-03-03T16:14:51.423Z,46.36
2023-03-03T16:17:27.650Z,46.51
2023-03-03T16:20:04.171Z,47.14
2023-03-03T16:22:42.756Z,47.34
2023-03-03T16:25:31.467Z,46.89
2023-03-03T16:28:05.176Z,46.71
2023-03-03T16:30:38.087Z,47.20
2023-03-03T16:33:21.395Z,46.95
2023-03-03T16:35:59.176Z,46.89
2023-03-03T16:38:32.527Z,46.62
2023-03-03T16:41:01.397Z,46.65
2023-03-03T16:43:38.212Z,46.28
2023-03-03T16:46:20.163Z,46.22
2023-03-03T16:48:56.547Z,46.51
2023-03-03T16:51:39.307Z,46.42
2023-03-03T16:54:11.751Z,47.00
2023-03-03T16:56:44.666Z,46.95
2023-03-03T16:59:45.755Z,46.64
2023-03-03T17:02:39.021Z,46.69
2023-03-03T17:05:17.011Z,46.55
2023-03-03T17:07:58.023Z,46.40
2023-03-03T17:10:30.420Z,46.85
2023-03-03T17:13:18.092Z,46.86
2023-03-03T17:15:57.389Z,45.33
2023-03-03T17:18:38.903Z,45.35
2023-03-03T17:21:17.638Z,46.06
2023-03-03T17:24:00.580Z,46.37
2023-03-03T17:26:47.311Z,46.18
2023-03-03T17:29:46.643Z,45.85
2023-03-03T17:32:33.392Z,46.08
2023-03-03T17:35:19.140Z,46.61
2023-03-03T17:37:57.664Z,46.94
2023-03-03T17:40:54.199Z,47.43
2023-03-03T17:43:25.462Z,47.98
2023-03-03T17:45:56.431Z,48.08
2023-03-03T17:49:06.428Z,48.45
2023-03-03T17:52:02.551Z,48.36
2023-03-03T17:54:56.958Z,48.71
2023-03-03T17:57:40.841Z,48.96
2023-03-03T18:00:23.963Z,49.37
2023-03-03T18:03:26.034Z,49.37
2023-03-03T18:06:18.352Z,49.73
2023-03-03T18:09:14.975Z,49.80
2023-03-03T18:12:00.071Z,50.11
2023-03-03T18:15:00.207Z,50.25
2023-03-03T18:17:36.486Z,50.57
2023-03-03T18:20:23.429Z,51.42
2023-03-03T18:22:52.617Z,51.27
2023-03-03T18:25:21.951Z,51.33
2023-03-03T18:28:20.607Z,51.44
2023-03-03T18:31:01.417Z,51.35
2023-03-03T18:33:43.581Z,51.43
2023-03-03T18:36:34.900Z,51.35
2023-03-03T18:39:02.444Z,51.49
2023-03-03T18:41:32.706Z,51.77
2023-03-03T18:44:03.400Z,52.23
2023-03-03T18:47:04.013Z,52.12
2023-03-03T18:49:50.510Z,52.26
2023-03-03T18:52:22.021Z,52.35
2023-03-03T18:55:24.509Z,51.87
2023-03-03T18:58:17.902Z,52.25
2023-03-03T19:00:50.212Z,52.31
2023-03-03T19:03:25.958Z,52.41
2023-03-03T19:05:53.735Z,52.81
2023-03-03T19:08:24.161Z,53.31
2023-03-03T19:10:54.890Z,53.67
2023-03-03T19:13:45.519Z,53.87
2023-03-03T19:19:17.232Z,54.63
2023-03-03T19:21:48.229Z,54.27
2023-03-03T19:24:34.291Z,53.61
2023-03-03T19:27:28.711Z,52.57
2023-03-03T19:30:13.643Z,52.14
2023-03-03T19:33:00.156Z,51.92
2023-03-03T19:35:45.063Z,51.65
2023-03-03T19:38:26.567Z,51.40
2023-03-03T19:41:03.015Z,51.74
2023-03-03T19:43:43.632Z,51.94
2023-03-03T19:46:35.101Z,51.69
2023-03-03T19:49:14.475Z,51.49
2023-03-03T19:51:52.639Z,51.87
2023-03-03T19:54:37.314Z,52.13
2023-03-03T19:57:11.620Z,52.32
2023-03-03T19:59:44.937Z,52.53
2023-03-03T20:02:31.778Z,52.47
2023-03-03T20:05:18.780Z,52.37
2023-03-03T20:07:56.394Z,52.35
2023-03-03T20:10:36.005Z,52.24
2023-03-03T20:13:18.983Z,52.33
2023-03-03T20:15:55.321Z,52.21
2023-03-03T20:18:55.040Z,51.86
2023-03-03T20:21:32.151Z,51.93
2023-03-03T20:24:26.544Z,51.57
2023-03-03T20:27:00.399Z,51.74
2023-03-03T20:30:03.032Z,51.50
2023-03-03T20:32:39.803Z,51.91
2023-03-03T20:35:21.395Z,52.00
2023-03-03T20:37:59.923Z,52.22
2023-03-03T20:40:38.446Z,52.52
2023-03-03T20:43:19.460Z,52.07
2023-03-03T20:45:54.460Z,52.28
2023-03-03T20:48:38.688Z,52.44
2023-03-03T20:51:11.825Z,52.29
2023-03-03T20:53:49.668Z,52.59
2023-03-03T20:56:25.937Z,52.60
2023-03-03T20:59:05.480Z,52.49
2023-03-03T21:01:41.099Z,52.50
2023-03-03T21:04:21.382Z,52.64
2023-03-03T21:06:51.646Z,52.97
2023-03-03T21:09:28.661Z,52.73
2023-03-03T21:11:59.578Z,52.55
2023-03-03T21:14:28.889Z,52.17
2023-03-03T21:16:58.473Z,52.13
2023-03-03T21:19:29.779Z,52.03
2023-03-03T21:22:00.830Z,51.59
2023-03-03T21:24:54.509Z,50.74
2023-03-03T21:27:28.953Z,50.26
2023-03-03T21:30:07.088Z,49.76
2023-03-03T21:32:40.939Z,49.49
2023-03-03T21:35:11.805Z,49.45
2023-03-03T21:37:48.886Z,49.32
2023-03-03T21:40:19.348Z,49.17
2023-03-03T21:42:49.780Z,49.06
2023-03-03T21:45:19.344Z,49.35
2023-03-03T21:47:46.997Z,49.45
2023-03-03T21:50:14.832Z,49.37
2023-03-03T21:52:42.452Z,49.29
2023-03-03T21:55:10.262Z,49.39
2023-03-03T21:57:37.537Z,49.27
2023-03-03T22:00:08.304Z,49.62
2023-03-03T22:02:36.404Z,49.37
2023-03-03T22:05:05.227Z,49.48
2023-03-03T22:07:33.686Z,49.38
2023-03-03T22:10:01.530Z,49.69
2023-03-03T22:12:28.790Z,49.69
2023-03-03T22:14:55.927Z,49.77
2023-03-03T22:17:25.332Z,50.01
2023-03-03T22:19:52.815Z,50.43
2023-03-03T22:22:20.830Z,50.46
2023-03-03T22:24:49.425Z,51.23
2023-03-03T22:27:16.912Z,51.13
2023-03-03T22:29:44.465Z,50.89
2023-03-03T22:32:12.150Z,51.14
2023-03-03T22:34:42.466Z,51.58
2023-03-03T22:37:10.655Z,51.54
2023-03-03T22:39:39.121Z,51.82
2023-03-03T22:42:06.519Z,51.91
2023-03-03T22:44:33.385Z,52.25
2023-03-03T22:47:01.695Z,52.94
2023-03-03T22:49:29.652Z,53.62
2023-03-03T22:51:58.084Z,53.88
2023-03-03T22:54:25.519Z,54.07
2023-03-03T22:56:52.794Z,54.57
2023-03-03T22:59:20.007Z,54.61
2023-03-03T23:01:47.741Z,54.44
2023-03-03T23:04:15.455Z,54.69
2023-03-03T23:06:42.997Z,54.58
2023-03-03T23:09:12.224Z,54.39
2023-03-03T23:11:39.609Z,53.54
2023-03-03T23:14:07.226Z,52.76
2023-03-03T23:16:36.688Z,52.44
2023-03-03T23:19:06.179Z,52.26
2023-03-03T23:21:33.967Z,52.46
2023-03-03T23:24:03.228Z,52.52
2023-03-03T23:26:32.320Z,52.32
2023-03-03T23:28:59.905Z,52.43
2023-03-03T23:31:27.511Z,52.13
2023-03-03T23:33:56.755Z,52.17
2023-03-03T23:36:24.591Z,52.36
2023-03-03T23:38:52.758Z,52.32
2023-03-03T23:41:20.062Z,52.71
2023-03-03T23:43:48.385Z,52.83
2023-03-03T23:46:15.405Z,53.30
2023-03-03T23:48:43.758Z,53.31
2023-03-03T23:51:14.573Z,53.92
2023-03-03T23:53:42.296Z,54.92
2023-03-03T23:56:09.707Z,55.14
2023-03-03T23:58:37.039Z,55.06
